Pugwash, Canada
Current Conditions -  °F | °C
As of 11:00 AM on Friday 31 Oct 2014 (Local Time) from CYYG Reporting Station
Few Clouds Few Clouds  
Wind Chill: 42°   Ceiling: Unl
Heat Index: 46°   Visibility: 15mi
Dew Point: 30°   Wind: 9mph
Humidity: 53%   Direction: 300°WNW
Pressure: 30.06"   Gusts: NA
Location:  45.85°N, 63.65°W
Report Text: CYYG 311400Z 30008KT 15SM FEW040 08/M01 A3006 RMK CF1 SLP180
Loading
Personal Weather Stations






























Interactive Weather Map
Tropical Storm Tracking
New forecast layout! Learn more

10-Day Weather Forecast

Advertisements
Track Severe Weather on mobile